^^
Saratoga-Weather Station Historical Data
Daily Summary for May 15, 2020 Units:  Both    English   Metric
Daily Weekly Monthly Yearly Custom
  High: Low: Average:
Temperature: 66 °F /  18.9 °C 44.4 °F /  6.9 °C 55 °F /  12.8 °C
Dew Point: 42.3 °F /  5.7 °C 33.8 °F /  1 °C 37.6 °F /  3.1 °C
Humidity: 67% 35% 53%
Wind Speed: 8.9mph /  14.3km/h - 2.5mph /  4km/h
Wind Gust: 13mph /  20.9km/h - -
Wind- - SW
Pressure: 30.2 in /  1021.0 hPa 30 in /  1014.6 hPa -
Precipitation: 0 in /  0.0 mm    
Historical Graphs
 
 
Tabular Data for May 15, 2020
Time Temperature Dew Point Pressure Wind Wind Speed Wind Gust Humidity Rainfall Rate (Hourly) solar
00:03 49.8 °F /  9.9 °C 37.4 °F /  3 °C 30in /  1014.9hPa Calm   2mph /  3.2km/h 62% 0in /  0.0mm 0 W/m2
00:08 49.6 °F /  9.8 °C 37.6 °F /  3.1 °C 30in /  1014.9hPa NW 2mph /  3.2km/h 3mph /  4.8km/h 63% 0in /  0.0mm 0 W/m2
00:13 49.5 °F /  9.7 °C 37 °F /  2.8 °C 30in /  1014.9hPa WNW 2mph /  3.2km/h 3mph /  4.8km/h 62% 0in /  0.0mm 0 W/m2
00:18 49.5 °F /  9.7 °C 37 °F /  2.8 °C 30in /  1014.9hPa West 0.9mph /  1.4km/h 4mph /  6.4km/h 62% 0in /  0.0mm 0 W/m2
00:23 49.3 °F /  9.6 °C 36.9 °F /  2.7 °C 30in /  1014.9hPa West 2.9mph /  4.7km/h 4mph /  6.4km/h 62% 0in /  0.0mm 0 W/m2
00:28 49.3 °F /  9.6 °C 36.9 °F /  2.7 °C 30in /  1014.9hPa NNW 2.9mph /  4.7km/h 3mph /  4.8km/h 62% 0in /  0.0mm 0 W/m2
00:33 49.3 °F /  9.6 °C 37.2 °F /  2.9 °C 30in /  1014.9hPa North 2mph /  3.2km/h 2mph /  3.2km/h 63% 0in /  0.0mm 0 W/m2
00:38 49.1 °F /  9.5 °C 36.7 °F /  2.6 °C 30in /  1014.9hPa NW 4mph /  6.4km/h 9mph /  14.5km/h 62% 0in /  0.0mm 0 W/m2
00:43 49.1 °F /  9.5 °C 36.7 °F /  2.6 °C 30in /  1014.9hPa NNW 2mph /  3.2km/h 5mph /  8km/h 62% 0in /  0.0mm 0 W/m2
00:48 48.9 °F /  9.4 °C 36.9 °F /  2.7 °C 30in /  1014.9hPa NW 4mph /  6.4km/h 9mph /  14.5km/h 63% 0in /  0.0mm 0 W/m2
00:53 48.9 °F /  9.4 °C 36.5 °F /  2.5 °C 30in /  1014.6hPa WNW 2.9mph /  4.7km/h 8mph /  12.9km/h 62% 0in /  0.0mm 0 W/m2
00:58 48.7 °F /  9.3 °C 36.3 °F /  2.4 °C 30in /  1014.6hPa WNW 0.9mph /  1.4km/h 4mph /  6.4km/h 62% 0in /  0.0mm 0 W/m2
01:03 48.6 °F /  9.2 °C 36.1 °F /  2.3 °C 30in /  1014.6hPa NW 2mph /  3.2km/h 3mph /  4.8km/h 62% 0in /  0.0mm 0 W/m2
01:08 48.4 °F /  9.1 °C 36 °F /  2.2 °C 30in /  1014.6hPa NNW 4mph /  6.4km/h 4mph /  6.4km/h 62% 0in /  0.0mm 0 W/m2
01:13 48.2 °F /  9 °C 35.8 °F /  2.1 °C 30in /  1014.6hPa West 6.9mph /  11.1km/h 10mph /  16.1km/h 62% 0in /  0.0mm 0 W/m2
01:18 48 °F /  8.9 °C 35.6 °F /  2 °C 30in /  1014.6hPa WNW 4.9mph /  7.9km/h 5mph /  8km/h 62% 0in /  0.0mm 0 W/m2
01:23 48 °F /  8.9 °C 35.6 °F /  2 °C 30in /  1014.6hPa WNW 2.9mph /  4.7km/h 7mph /  11.3km/h 62% 0in /  0.0mm 0 W/m2
01:28 47.8 °F /  8.8 °C 35.4 °F /  1.9 °C 30in /  1014.6hPa WNW 2mph /  3.2km/h 4mph /  6.4km/h 62% 0in /  0.0mm 0 W/m2
01:33 47.8 °F /  8.8 °C 35.4 °F /  1.9 °C 30in /  1014.6hPa West 2mph /  3.2km/h 4mph /  6.4km/h 62% 0in /  0.0mm 0 W/m2
01:38 47.8 °F /  8.8 °C 35.4 °F /  1.9 °C 30in /  1014.6hPa NW 2mph /  3.2km/h 3mph /  4.8km/h 62% 0in /  0.0mm 0 W/m2
01:43 47.8 °F /  8.8 °C 35.4 °F /  1.9 °C 30in /  1014.6hPa NW 2mph /  3.2km/h 9mph /  14.5km/h 62% 0in /  0.0mm 0 W/m2
01:48 47.7 °F /  8.7 °C 35.2 °F /  1.8 °C 30in /  1014.6hPa West 2mph /  3.2km/h 7mph /  11.3km/h 62% 0in /  0.0mm 0 W/m2
01:54 47.7 °F /  8.7 °C 35.2 °F /  1.8 °C 30in /  1014.6hPa West 2.9mph /  4.7km/h 9mph /  14.5km/h 62% 0in /  0.0mm 0 W/m2
01:59 47.7 °F /  8.7 °C 35.2 °F /  1.8 °C 30in /  1014.6hPa WSW 0.9mph /  1.4km/h 5mph /  8km/h 62% 0in /  0.0mm 0 W/m2
02:04 47.5 °F /  8.6 °C 35.1 °F /  1.7 °C 30in /  1014.6hPa NNW 0.9mph /  1.4km/h 5mph /  8km/h 62% 0in /  0.0mm 0 W/m2
02:09 47.3 °F /  8.5 °C 34.9 °F /  1.6 °C 30in /  1014.6hPa WNW 2mph /  3.2km/h 5mph /  8km/h 62% 0in /  0.0mm 0 W/m2
02:14 47.3 °F /  8.5 °C 34.9 °F /  1.6 °C 30in /  1014.6hPa West 2.9mph /  4.7km/h 9mph /  14.5km/h 62% 0in /  0.0mm 0 W/m2
02:19 47.3 °F /  8.5 °C 34.9 °F /  1.6 °C 30in /  1014.6hPa West 2.9mph /  4.7km/h 6mph /  9.7km/h 62% 0in /  0.0mm 0 W/m2
02:24 47.1 °F /  8.4 °C 34.7 °F /  1.5 °C 30in /  1014.6hPa NNW 4.9mph /  7.9km/h 9mph /  14.5km/h 62% 0in /  0.0mm 0 W/m2
02:29 47.1 °F /  8.4 °C 34.7 °F /  1.5 °C 30in /  1014.6hPa NW 4mph /  6.4km/h 5mph /  8km/h 62% 0in /  0.0mm 0 W/m2
02:34 46.9 °F /  8.3 °C 34.5 °F /  1.4 °C 30in /  1014.6hPa WNW 4.9mph /  7.9km/h 9mph /  14.5km/h 62% 0in /  0.0mm 0 W/m2
02:39 46.9 °F /  8.3 °C 35.1 °F /  1.7 °C 30in /  1014.6hPa NW 2.9mph /  4.7km/h 4mph /  6.4km/h 63% 0in /  0.0mm 0 W/m2
02:44 46.9 °F /  8.3 °C 35.1 °F /  1.7 °C 30in /  1014.6hPa NNW 2.9mph /  4.7km/h 7mph /  11.3km/h 63% 0in /  0.0mm 0 W/m2
02:49 46.8 °F /  8.2 °C 34.9 °F /  1.6 °C 30in /  1014.6hPa WNW 2mph /  3.2km/h 9mph /  14.5km/h 63% 0in /  0.0mm 0 W/m2
02:54 46.8 °F /  8.2 °C 34.9 °F /  1.6 °C 30in /  1014.6hPa North 2.9mph /  4.7km/h 4mph /  6.4km/h 63% 0in /  0.0mm 0 W/m2
02:59 46.8 °F /  8.2 °C 34.9 °F /  1.6 °C 30in /  1014.6hPa West 2.9mph /  4.7km/h 9mph /  14.5km/h 63% 0in /  0.0mm 0 W/m2
03:04 46.6 °F /  8.1 °C 35.1 °F /  1.7 °C 30in /  1014.6hPa North 2.9mph /  4.7km/h 4mph /  6.4km/h 64% 0in /  0.0mm 0 W/m2
03:09 46.6 °F /  8.1 °C 35.1 °F /  1.7 °C 30in /  1014.6hPa NNW 0.9mph /  1.4km/h 4mph /  6.4km/h 64% 0in /  0.0mm 0 W/m2
03:14 46.6 °F /  8.1 °C 35.1 °F /  1.7 °C 30in /  1014.6hPa NW 2.9mph /  4.7km/h 3mph /  4.8km/h 64% 0in /  0.0mm 0 W/m2
03:19 46.4 °F /  8 °C 34.9 °F /  1.6 °C 30in /  1014.6hPa WNW 2.9mph /  4.7km/h 5mph /  8km/h 64% 0in /  0.0mm 0 W/m2
03:24 46.2 °F /  7.9 °C 34.7 °F /  1.5 °C 30in /  1014.6hPa NW 0.9mph /  1.4km/h 1mph /  1.6km/h 64% 0in /  0.0mm 0 W/m2
03:29 46.2 °F /  7.9 °C 34.7 °F /  1.5 °C 30in /  1014.6hPa NW 0.9mph /  1.4km/h 3mph /  4.8km/h 64% 0in /  0.0mm 0 W/m2
03:34 46 °F /  7.8 °C 34.5 °F /  1.4 °C 30in /  1014.6hPa West 2mph /  3.2km/h 6mph /  9.7km/h 64% 0in /  0.0mm 0 W/m2
03:39 46 °F /  7.8 °C 34.5 °F /  1.4 °C 30in /  1014.6hPa West 2mph /  3.2km/h 7mph /  11.3km/h 64% 0in /  0.0mm 0 W/m2
03:44 46 °F /  7.8 °C 34.5 °F /  1.4 °C 30in /  1014.6hPa NW 2mph /  3.2km/h 4mph /  6.4km/h 64% 0in /  0.0mm 0 W/m2
03:49 46 °F /  7.8 °C 34.5 °F /  1.4 °C 30in /  1014.6hPa NNW 4mph /  6.4km/h 12mph /  19.3km/h 64% 0in /  0.0mm 0 W/m2
03:54 46 °F /  7.8 °C 34.9 °F /  1.6 °C 30in /  1014.6hPa NW 2mph /  3.2km/h 4mph /  6.4km/h 65% 0in /  0.0mm 0 W/m2
03:59 46 °F /  7.8 °C 34.5 °F /  1.4 °C 30in /  1014.6hPa NW 2mph /  3.2km/h 8mph /  12.9km/h 64% 0in /  0.0mm 0 W/m2
04:04 45.9 °F /  7.7 °C 34.7 °F /  1.5 °C 30in /  1014.6hPa NW 2mph /  3.2km/h 6mph /  9.7km/h 65% 0in /  0.0mm 0 W/m2
04:09 45.9 °F /  7.7 °C 34.7 °F /  1.5 °C 30in /  1014.6hPa NW 0.9mph /  1.4km/h 8mph /  12.9km/h 65% 0in /  0.0mm 0 W/m2
04:14 45.9 °F /  7.7 °C 34.7 °F /  1.5 °C 30in /  1014.9hPa NW 4mph /  6.4km/h 8mph /  12.9km/h 65% 0in /  0.0mm 0 W/m2
04:20 45.9 °F /  7.7 °C 35.1 °F /  1.7 °C 30in /  1014.9hPa NNW 4mph /  6.4km/h 5mph /  8km/h 66% 0in /  0.0mm 0 W/m2
04:25 45.9 °F /  7.7 °C 35.1 °F /  1.7 °C 30in /  1014.9hPa WNW 4.9mph /  7.9km/h 5mph /  8km/h 66% 0in /  0.0mm 0 W/m2
04:30 45.7 °F /  7.6 °C 35.1 °F /  1.7 °C 30in /  1014.9hPa NNW 2.9mph /  4.7km/h 3mph /  4.8km/h 66% 0in /  0.0mm 0 W/m2
04:35 45.7 °F /  7.6 °C 35.1 °F /  1.7 °C 30in /  1014.9hPa WSW 2.9mph /  4.7km/h 5mph /  8km/h 66% 0in /  0.0mm 0 W/m2
04:40 45.7 °F /  7.6 °C 35.1 °F /  1.7 °C 30in /  1014.9hPa NNW 2mph /  3.2km/h 9mph /  14.5km/h 66% 0in /  0.0mm 0 W/m2
04:45 45.5 °F /  7.5 °C 34.9 °F /  1.6 °C 30in /  1014.9hPa East 2mph /  3.2km/h 2mph /  3.2km/h 66% 0in /  0.0mm 0 W/m2
04:50 45.3 °F /  7.4 °C 34.7 °F /  1.5 °C 30in /  1014.9hPa NW 0.9mph /  1.4km/h 5mph /  8km/h 66% 0in /  0.0mm 0 W/m2
04:55 45.3 °F /  7.4 °C 34.7 °F /  1.5 °C 30in /  1014.9hPa NNE 0.9mph /  1.4km/h 4mph /  6.4km/h 66% 0in /  0.0mm 0 W/m2
05:00 45.3 °F /  7.4 °C 35.1 °F /  1.7 °C 30in /  1014.9hPa WSW 0.9mph /  1.4km/h 3mph /  4.8km/h 67% 0in /  0.0mm 0 W/m2
05:06 45.3 °F /  7.4 °C 34.7 °F /  1.5 °C 30in /  1014.9hPa NNW 2mph /  3.2km/h 5mph /  8km/h 66% 0in /  0.0mm 0 W/m2
05:11 45.3 °F /  7.4 °C 34.7 °F /  1.5 °C 30in /  1014.9hPa NNE 2mph /  3.2km/h 5mph /  8km/h 66% 0in /  0.0mm 0 W/m2
05:16 45.3 °F /  7.4 °C 34.7 °F /  1.5 °C 30in /  1014.9hPa Calm   2mph /  3.2km/h 66% 0in /  0.0mm 0 W/m2
05:21 45.1 °F /  7.3 °C 34.5 °F /  1.4 °C 30in /  1014.9hPa WNW 2mph /  3.2km/h 7mph /  11.3km/h 66% 0in /  0.0mm 0 W/m2
05:26 45.1 °F /  7.3 °C 34.5 °F /  1.4 °C 30in /  1015.2hPa NNE 2.9mph /  4.7km/h 4mph /  6.4km/h 66% 0in /  0.0mm 0 W/m2
05:31 45.1 °F /  7.3 °C 34.5 °F /  1.4 °C 30in /  1015.2hPa WSW 2mph /  3.2km/h 9mph /  14.5km/h 66% 0in /  0.0mm 0 W/m2
05:36 45.1 °F /  7.3 °C 34.5 °F /  1.4 °C 30in /  1015.2hPa NW 2.9mph /  4.7km/h 5mph /  8km/h 66% 0in /  0.0mm 0 W/m2
05:41 45 °F /  7.2 °C 34.3 °F /  1.3 °C 30in /  1015.2hPa NNW 2.9mph /  4.7km/h 10mph /  16.1km/h 66% 0in /  0.0mm 0 W/m2
05:46 45 °F /  7.2 °C 34.3 °F /  1.3 °C 30in /  1015.2hPa SSW 2mph /  3.2km/h 3mph /  4.8km/h 66% 0in /  0.0mm 0 W/m2
05:51 45 °F /  7.2 °C 34.3 °F /  1.3 °C 30in /  1015.2hPa WSW 0.9mph /  1.4km/h 9mph /  14.5km/h 66% 0in /  0.0mm 0 W/m2
05:56 45 °F /  7.2 °C 34.3 °F /  1.3 °C 30in /  1015.2hPa NNW 4.9mph /  7.9km/h 6mph /  9.7km/h 66% 0in /  0.0mm 5 W/m2
06:01 44.8 °F /  7.1 °C 34.2 °F /  1.2 °C 30in /  1015.2hPa SW 2mph /  3.2km/h 9mph /  14.5km/h 66% 0in /  0.0mm 7 W/m2
06:06 44.8 °F /  7.1 °C 34.2 °F /  1.2 °C 30in /  1015.2hPa West 8.1mph /  13km/h 11mph /  17.7km/h 66% 0in /  0.0mm 11 W/m2
06:11 44.6 °F /  7 °C 34 °F /  1.1 °C 30in /  1015.6hPa NNE 2mph /  3.2km/h 9mph /  14.5km/h 66% 0in /  0.0mm 14 W/m2
06:16 44.6 °F /  7 °C 34 °F /  1.1 °C 30in /  1015.2hPa NW 0.9mph /  1.4km/h 10mph /  16.1km/h 66% 0in /  0.0mm 18 W/m2
06:21 44.4 °F /  6.9 °C 33.8 °F /  1 °C 30in /  1015.6hPa NNW 2mph /  3.2km/h 3mph /  4.8km/h 66% 0in /  0.0mm 19 W/m2
06:27 44.4 °F /  6.9 °C 33.8 °F /  1 °C 30in /  1015.6hPa NE 0.9mph /  1.4km/h 8mph /  12.9km/h 66% 0in /  0.0mm 23 W/m2
06:32 44.4 °F /  6.9 °C 34.2 °F /  1.2 °C 30in /  1015.6hPa NNW 2.9mph /  4.7km/h 7mph /  11.3km/h 67% 0in /  0.0mm 28 W/m2
06:37 44.4 °F /  6.9 °C 34.2 °F /  1.2 °C 30in /  1015.6hPa ENE 0.9mph /  1.4km/h 4mph /  6.4km/h 67% 0in /  0.0mm 32 W/m2
06:42 44.4 °F /  6.9 °C 34.2 °F /  1.2 °C 30in /  1015.6hPa NNW 0.9mph /  1.4km/h 7mph /  11.3km/h 67% 0in /  0.0mm 33 W/m2
06:47 44.4 °F /  6.9 °C 34.2 °F /  1.2 °C 30in /  1015.6hPa WNW 2mph /  3.2km/h 4mph /  6.4km/h 67% 0in /  0.0mm 33 W/m2
06:52 44.4 °F /  6.9 °C 34.2 °F /  1.2 °C 30in /  1015.6hPa ENE 0.9mph /  1.4km/h 8mph /  12.9km/h 67% 0in /  0.0mm 35 W/m2
06:57 44.4 °F /  6.9 °C 33.8 °F /  1 °C 30in /  1015.6hPa NW 4mph /  6.4km/h 4mph /  6.4km/h 66% 0in /  0.0mm 39 W/m2
07:02 44.4 °F /  6.9 °C 34.2 °F /  1.2 °C 30in /  1015.6hPa North 2.9mph /  4.7km/h 6mph /  9.7km/h 67% 0in /  0.0mm 40 W/m2
07:07 44.4 °F /  6.9 °C 34.2 °F /  1.2 °C 30in /  1015.9hPa NNW 2.9mph /  4.7km/h 8mph /  12.9km/h 67% 0in /  0.0mm 42 W/m2
07:12 44.6 °F /  7 °C 34.3 °F /  1.3 °C 30in /  1015.9hPa North 4.9mph /  7.9km/h 5mph /  8km/h 67% 0in /  0.0mm 46 W/m2
07:17 44.8 °F /  7.1 °C 34.5 °F /  1.4 °C 30in /  1015.9hPa SSE 0.9mph /  1.4km/h 8mph /  12.9km/h 67% 0in /  0.0mm 47 W/m2
07:22 44.8 °F /  7.1 °C 34.5 °F /  1.4 °C 30in /  1015.9hPa WNW 2.9mph /  4.7km/h 3mph /  4.8km/h 67% 0in /  0.0mm 49 W/m2
07:27 45 °F /  7.2 °C 34.3 °F /  1.3 °C 30in /  1016.3hPa NE 0.9mph /  1.4km/h 4mph /  6.4km/h 66% 0in /  0.0mm 51 W/m2
07:32 45.1 °F /  7.3 °C 34.9 °F /  1.6 °C 30in /  1016.3hPa NE 0.9mph /  1.4km/h 1mph /  1.6km/h 67% 0in /  0.0mm 53 W/m2
07:37 45.1 °F /  7.3 °C 34.5 °F /  1.4 °C 30in /  1016.3hPa North 0.9mph /  1.4km/h 4mph /  6.4km/h 66% 0in /  0.0mm 54 W/m2
07:42 45.3 °F /  7.4 °C 35.1 °F /  1.7 °C 30in /  1016.3hPa WNW 4mph /  6.4km/h 4mph /  6.4km/h 67% 0in /  0.0mm 56 W/m2
07:47 45.7 °F /  7.6 °C 35.1 °F /  1.7 °C 30in /  1016.3hPa West 2.9mph /  4.7km/h 4mph /  6.4km/h 66% 0in /  0.0mm 62 W/m2
07:52 45.9 °F /  7.7 °C 35.6 °F /  2 °C 30in /  1016.3hPa WNW 2.9mph /  4.7km/h 9mph /  14.5km/h 67% 0in /  0.0mm 232 W/m2
07:57 46.2 °F /  7.9 °C 35.4 °F /  1.9 °C 30in /  1016.3hPa Calm   3mph /  4.8km/h 66% 0in /  0.0mm 255 W/m2
08:02 46.8 °F /  8.2 °C 36 °F /  2.2 °C 30in /  1016.3hPa East 0.9mph /  1.4km/h 9mph /  14.5km/h 66% 0in /  0.0mm 267 W/m2
08:07 47.1 °F /  8.4 °C 36 °F /  2.2 °C 30in /  1016.3hPa NNE 2.9mph /  4.7km/h 5mph /  8km/h 65% 0in /  0.0mm 279 W/m2
08:12 47.3 °F /  8.5 °C 36.1 °F /  2.3 °C 30in /  1016.3hPa WNW 2mph /  3.2km/h 6mph /  9.7km/h 65% 0in /  0.0mm 292 W/m2
08:17 47.7 °F /  8.7 °C 36.1 °F /  2.3 °C 30in /  1016.6hPa North 2.9mph /  4.7km/h 5mph /  8km/h 64% 0in /  0.0mm 308 W/m2
08:22 48 °F /  8.9 °C 36.5 °F /  2.5 °C 30in /  1016.6hPa East 2mph /  3.2km/h 9mph /  14.5km/h 64% 0in /  0.0mm 322 W/m2
08:27 48 °F /  8.9 °C 36 °F /  2.2 °C 30in /  1016.3hPa WNW 0.9mph /  1.4km/h 4mph /  6.4km/h 63% 0in /  0.0mm 334 W/m2
08:32 48.2 °F /  9 °C 36.7 °F /  2.6 °C 30in /  1016.6hPa WNW 8.1mph /  13km/h 8mph /  12.9km/h 64% 0in /  0.0mm 345 W/m2
08:37 48.4 °F /  9.1 °C 36.7 °F /  2.6 °C 30in /  1016.6hPa NE 0.9mph /  1.4km/h 6mph /  9.7km/h 64% 0in /  0.0mm 362 W/m2
08:42 48.7 °F /  9.3 °C 37 °F /  2.8 °C 30in /  1016.6hPa ENE 0.9mph /  1.4km/h 4mph /  6.4km/h 64% 0in /  0.0mm 371 W/m2
08:47 49.3 °F /  9.6 °C 37.2 °F /  2.9 °C 30in /  1016.6hPa NNW 0.9mph /  1.4km/h 6mph /  9.7km/h 63% 0in /  0.0mm 387 W/m2
08:52 49.3 °F /  9.6 °C 36.9 °F /  2.7 °C 30in /  1016.6hPa ENE 6mph /  9.7km/h 9mph /  14.5km/h 62% 0in /  0.0mm 408 W/m2
08:57 49.5 °F /  9.7 °C 37 °F /  2.8 °C 30in /  1016.6hPa WSW 0.9mph /  1.4km/h 2mph /  3.2km/h 62% 0in /  0.0mm 420 W/m2
09:03 49.8 °F /  9.9 °C 37.4 °F /  3 °C 30in /  1016.9hPa NW 2mph /  3.2km/h 9mph /  14.5km/h 62% 0in /  0.0mm 429 W/m2
09:08 50.4 °F /  10.2 °C 37.8 °F /  3.2 °C 30in /  1016.9hPa NW 0.9mph /  1.4km/h 3mph /  4.8km/h 62% 0in /  0.0mm 441 W/m2
09:13 50.7 °F /  10.4 °C 37.8 °F /  3.2 °C 30in /  1016.9hPa North 4mph /  6.4km/h 7mph /  11.3km/h 61% 0in /  0.0mm 459 W/m2
09:18 50.7 °F /  10.4 °C 37.8 °F /  3.2 °C 30in /  1016.9hPa Calm   9mph /  14.5km/h 61% 0in /  0.0mm 471 W/m2
09:23 51.1 °F /  10.6 °C 38.1 °F /  3.4 °C 30in /  1016.9hPa NW 4mph /  6.4km/h 8mph /  12.9km/h 61% 0in /  0.0mm 487 W/m2
09:28 51.4 °F /  10.8 °C 37.9 °F /  3.3 °C 30in /  1016.9hPa ENE 2mph /  3.2km/h 6mph /  9.7km/h 60% 0in /  0.0mm 496 W/m2
09:33 52 °F /  11.1 °C 38.5 °F /  3.6 °C 30in /  1016.9hPa NNW 2mph /  3.2km/h 4mph /  6.4km/h 60% 0in /  0.0mm 512 W/m2
09:38 52.5 °F /  11.4 °C 38.1 °F /  3.4 °C 30in /  1016.9hPa NE 0.9mph /  1.4km/h 4mph /  6.4km/h 58% 0in /  0.0mm 522 W/m2
09:43 53.1 °F /  11.7 °C 38.7 °F /  3.7 °C 30in /  1016.9hPa WNW 0.9mph /  1.4km/h 5mph /  8km/h 58% 0in /  0.0mm 536 W/m2
09:48 53.1 °F /  11.7 °C 38.3 °F /  3.5 °C 30in /  1016.9hPa ENE 4mph /  6.4km/h 10mph /  16.1km/h 57% 0in /  0.0mm 543 W/m2
09:53 53.2 °F /  11.8 °C 38.8 °F /  3.8 °C 30in /  1016.9hPa ENE 2.9mph /  4.7km/h 8mph /  12.9km/h 58% 0in /  0.0mm 555 W/m2
09:58 53.8 °F /  12.1 °C 38.8 °F /  3.8 °C 30in /  1016.9hPa WSW 4.9mph /  7.9km/h 10mph /  16.1km/h 57% 0in /  0.0mm 566 W/m2
10:03 53.8 °F /  12.1 °C 38.5 °F /  3.6 °C 30in /  1016.9hPa ESE 2mph /  3.2km/h 5mph /  8km/h 56% 0in /  0.0mm 584 W/m2
10:08 54.1 °F /  12.3 °C 38.8 °F /  3.8 °C 30in /  1016.9hPa NW 6.9mph /  11.1km/h 8mph /  12.9km/h 56% 0in /  0.0mm 594 W/m2
10:14 54.3 °F /  12.4 °C 39 °F /  3.9 °C 30in /  1016.9hPa West 2.9mph /  4.7km/h 9mph /  14.5km/h 56% 0in /  0.0mm 79 W/m2
10:19 54.7 °F /  12.6 °C 39.7 °F /  4.3 °C 30in /  1016.9hPa North 8.1mph /  13km/h 8mph /  12.9km/h 57% 0in /  0.0mm 125 W/m2
10:24 55 °F /  12.8 °C 38.7 °F /  3.7 °C 30in /  1016.9hPa WSW 0.9mph /  1.4km/h 5mph /  8km/h 54% 0in /  0.0mm 626 W/m2
10:29 55.6 °F /  13.1 °C 39.2 °F /  4 °C 30in /  1017.3hPa NNW 2.9mph /  4.7km/h 6mph /  9.7km/h 54% 0in /  0.0mm 635 W/m2
10:34 55.8 °F /  13.2 °C 38.8 °F /  3.8 °C 30in /  1017.3hPa East 4mph /  6.4km/h 6mph /  9.7km/h 53% 0in /  0.0mm 647 W/m2
10:39 55.9 °F /  13.3 °C 39 °F /  3.9 °C 30in /  1017.3hPa NE 2.9mph /  4.7km/h 7mph /  11.3km/h 53% 0in /  0.0mm 656 W/m2
10:44 56.3 °F /  13.5 °C 38.8 °F /  3.8 °C 30in /  1017.3hPa NE 8.9mph /  14.3km/h 10mph /  16.1km/h 52% 0in /  0.0mm 666 W/m2
10:49 56.7 °F /  13.7 °C 38.7 °F /  3.7 °C 30.1in /  1017.6hPa NNE 4.9mph /  7.9km/h 11mph /  17.7km/h 51% 0in /  0.0mm 675 W/m2
10:54 56.7 °F /  13.7 °C 38.7 °F /  3.7 °C 30.1in /  1017.6hPa ENE 4.9mph /  7.9km/h 11mph /  17.7km/h 51% 0in /  0.0mm 682 W/m2
10:59 56.7 °F /  13.7 °C 38.3 °F /  3.5 °C 30.1in /  1017.6hPa NE 6mph /  9.7km/h 10mph /  16.1km/h 50% 0in /  0.0mm 691 W/m2
11:04 56.7 °F /  13.7 °C 38.7 °F /  3.7 °C 30.1in /  1017.6hPa NE 6mph /  9.7km/h 9mph /  14.5km/h 51% 0in /  0.0mm 703 W/m2
11:09 57 °F /  13.9 °C 39 °F /  3.9 °C 30in /  1017.3hPa East 2mph /  3.2km/h 4mph /  6.4km/h 51% 0in /  0.0mm 710 W/m2
11:14 57.6 °F /  14.2 °C 39 °F /  3.9 °C 30.1in /  1017.6hPa SW 4.9mph /  7.9km/h 13mph /  20.9km/h 50% 0in /  0.0mm 722 W/m2
11:19 57.6 °F /  14.2 °C 39 °F /  3.9 °C 30.1in /  1017.6hPa NNW 2mph /  3.2km/h 6mph /  9.7km/h 50% 0in /  0.0mm 729 W/m2
11:24 57.6 °F /  14.2 °C 39 °F /  3.9 °C 30.1in /  1017.6hPa NNW 2.9mph /  4.7km/h 12mph /  19.3km/h 50% 0in /  0.0mm 735 W/m2
11:29 57.7 °F /  14.3 °C 39.2 °F /  4 °C 30.1in /  1017.6hPa ENE 2mph /  3.2km/h 6mph /  9.7km/h 50% 0in /  0.0mm 742 W/m2
11:34 58.1 °F /  14.5 °C 39 °F /  3.9 °C 30.1in /  1017.6hPa East 0.9mph /  1.4km/h 9mph /  14.5km/h 49% 0in /  0.0mm 751 W/m2
11:39 58.5 °F /  14.7 °C 39.9 °F /  4.4 °C 30.1in /  1017.6hPa WNW 6mph /  9.7km/h 11mph /  17.7km/h 50% 0in /  0.0mm 756 W/m2
11:44 58.6 °F /  14.8 °C 39.6 °F /  4.2 °C 30.1in /  1017.6hPa ESE 0.9mph /  1.4km/h 5mph /  8km/h 49% 0in /  0.0mm 758 W/m2
11:49 58.6 °F /  14.8 °C 39.6 °F /  4.2 °C 30.1in /  1017.6hPa NW 6.9mph /  11.1km/h 7mph /  11.3km/h 49% 0in /  0.0mm 770 W/m2
11:54 59 °F /  15 °C 39.9 °F /  4.4 °C 30.1in /  1018.0hPa NE 2.9mph /  4.7km/h 8mph /  12.9km/h 49% 0in /  0.0mm 777 W/m2
12:00 59.2 °F /  15.1 °C 40.6 °F /  4.8 °C 30.1in /  1018.0hPa ENE 6.9mph /  11.1km/h 11mph /  17.7km/h 50% 0in /  0.0mm 786 W/m2
12:05 59.2 °F /  15.1 °C 39.6 °F /  4.2 °C 30.1in /  1018.0hPa NE 2.9mph /  4.7km/h 5mph /  8km/h 48% 0in /  0.0mm 788 W/m2
12:10 59.4 °F /  15.2 °C 39.7 °F /  4.3 °C 30.1in /  1018.0hPa NW 4.9mph /  7.9km/h 6mph /  9.7km/h 48% 0in /  0.0mm 796 W/m2
12:15 59.5 °F /  15.3 °C 39.9 °F /  4.4 °C 30.1in /  1018.0hPa SSW 2.9mph /  4.7km/h 6mph /  9.7km/h 48% 0in /  0.0mm 800 W/m2
12:20 59.5 °F /  15.3 °C 39.9 °F /  4.4 °C 30.1in /  1018.0hPa NE 0.9mph /  1.4km/h 4mph /  6.4km/h 48% 0in /  0.0mm 802 W/m2
12:25 59.7 °F /  15.4 °C 40.5 °F /  4.7 °C 30.1in /  1018.0hPa NNW 4.9mph /  7.9km/h 9mph /  14.5km/h 49% 0in /  0.0mm 809 W/m2
12:30 59.9 °F /  15.5 °C 40.6 °F /  4.8 °C 30.1in /  1018.0hPa SW 2mph /  3.2km/h 4mph /  6.4km/h 49% 0in /  0.0mm 812 W/m2
12:35 59.9 °F /  15.5 °C 40.6 °F /  4.8 °C 30.1in /  1018.0hPa East 2mph /  3.2km/h 6mph /  9.7km/h 49% 0in /  0.0mm 816 W/m2
12:40 60.1 °F /  15.6 °C 40.3 °F /  4.6 °C 30.1in /  1018.0hPa East 8.1mph /  13km/h 10mph /  16.1km/h 48% 0in /  0.0mm 817 W/m2
12:45 60.3 °F /  15.7 °C 39.9 °F /  4.4 °C 30.1in /  1018.0hPa NE 8.9mph /  14.3km/h 9mph /  14.5km/h 47% 0in /  0.0mm 821 W/m2
12:51 60.4 °F /  15.8 °C 40.1 °F /  4.5 °C 30.1in /  1018.0hPa ENE 2mph /  3.2km/h 10mph /  16.1km/h 47% 0in /  0.0mm 821 W/m2
12:56 60.8 °F /  16 °C 41 °F /  5 °C 30.1in /  1018.0hPa ENE 4.9mph /  7.9km/h 7mph /  11.3km/h 48% 0in /  0.0mm 824 W/m2
13:01 61 °F /  16.1 °C 40.6 °F /  4.8 °C 30.1in /  1018.0hPa SSW 2.9mph /  4.7km/h 6mph /  9.7km/h 47% 0in /  0.0mm 828 W/m2
13:06 61.3 °F /  16.3 °C 41.5 °F /  5.3 °C 30.1in /  1018.0hPa WNW 0.9mph /  1.4km/h 7mph /  11.3km/h 48% 0in /  0.0mm 830 W/m2
13:11 61.3 °F /  16.3 °C 39.7 °F /  4.3 °C 30.1in /  1018.3hPa SE 2.9mph /  4.7km/h 9mph /  14.5km/h 45% 0in /  0.0mm 831 W/m2
13:16 61.5 °F /  16.4 °C 42.3 °F /  5.7 °C 30.1in /  1018.0hPa NW 2mph /  3.2km/h 2mph /  3.2km/h 49% 0in /  0.0mm 831 W/m2
13:21 61.9 °F /  16.6 °C 41.9 °F /  5.5 °C 30.1in /  1018.0hPa ENE 0.9mph /  1.4km/h 8mph /  12.9km/h 48% 0in /  0.0mm 831 W/m2
13:26 62.2 °F /  16.8 °C 41.2 °F /  5.1 °C 30.1in /  1018.3hPa East 4mph /  6.4km/h 8mph /  12.9km/h 46% 0in /  0.0mm 830 W/m2
13:31 62.4 °F /  16.9 °C 40.8 °F /  4.9 °C 30.1in /  1018.3hPa ESE 4mph /  6.4km/h 4mph /  6.4km/h 45% 0in /  0.0mm 840 W/m2
13:36 62.4 °F /  16.9 °C 39.6 °F /  4.2 °C 30.1in /  1018.0hPa South 2mph /  3.2km/h 4mph /  6.4km/h 43% 0in /  0.0mm 833 W/m2
13:41 62.1 °F /  16.7 °C 40.5 °F /  4.7 °C 30.1in /  1018.3hPa East 4mph /  6.4km/h 7mph /  11.3km/h 45% 0in /  0.0mm 831 W/m2
13:46 62.1 °F /  16.7 °C 39.9 °F /  4.4 °C 30.1in /  1018.3hPa South 0.9mph /  1.4km/h 5mph /  8km/h 44% 0in /  0.0mm 831 W/m2
13:51 62.4 °F /  16.9 °C 40.8 °F /  4.9 °C 30.1in /  1018.3hPa North 4.9mph /  7.9km/h 10mph /  16.1km/h 45% 0in /  0.0mm 837 W/m2
13:56 62.6 °F /  17 °C 40.5 °F /  4.7 °C 30.1in /  1018.3hPa NNW 2mph /  3.2km/h 8mph /  12.9km/h 44% 0in /  0.0mm 838 W/m2
14:01 63 °F /  17.2 °C 40.6 °F /  4.8 °C 30.1in /  1018.3hPa NW 4mph /  6.4km/h 6mph /  9.7km/h 44% 0in /  0.0mm 831 W/m2
14:06 63 °F /  17.2 °C 39.6 °F /  4.2 °C 30.1in /  1018.3hPa ESE 0.9mph /  1.4km/h 4mph /  6.4km/h 42% 0in /  0.0mm 831 W/m2
14:11 63 °F /  17.2 °C 40.1 °F /  4.5 °C 30.1in /  1018.3hPa NW 4mph /  6.4km/h 4mph /  6.4km/h 43% 0in /  0.0mm 828 W/m2
14:16 63.1 °F /  17.3 °C 40.8 °F /  4.9 °C 30.1in /  1018.3hPa NNE 2mph /  3.2km/h 2mph /  3.2km/h 44% 0in /  0.0mm 833 W/m2
14:21 63.5 °F /  17.5 °C 39.9 °F /  4.4 °C 30.1in /  1018.3hPa WSW 2.9mph /  4.7km/h 5mph /  8km/h 42% 0in /  0.0mm 821 W/m2
14:26 63 °F /  17.2 °C 38.8 °F /  3.8 °C 30.1in /  1018.3hPa WNW 2.9mph /  4.7km/h 7mph /  11.3km/h 41% 0in /  0.0mm 812 W/m2
14:31 62.6 °F /  17 °C 39.2 °F /  4 °C 30.1in /  1018.3hPa NNW 2.9mph /  4.7km/h 10mph /  16.1km/h 42% 0in /  0.0mm 810 W/m2
14:36 62.8 °F /  17.1 °C 39.4 °F /  4.1 °C 30.1in /  1018.3hPa North 2mph /  3.2km/h 8mph /  12.9km/h 42% 0in /  0.0mm 812 W/m2
14:41 62.6 °F /  17 °C 38.5 °F /  3.6 °C 30.1in /  1018.3hPa NW 4mph /  6.4km/h 10mph /  16.1km/h 41% 0in /  0.0mm 835 W/m2
14:46 62.8 °F /  17.1 °C 39.4 °F /  4.1 °C 30.1in /  1018.3hPa NE 4mph /  6.4km/h 8mph /  12.9km/h 42% 0in /  0.0mm 810 W/m2
14:51 63 °F /  17.2 °C 40.6 °F /  4.8 °C 30.1in /  1018.3hPa WSW 0.9mph /  1.4km/h 3mph /  4.8km/h 44% 0in /  0.0mm 796 W/m2
14:57 63.1 °F /  17.3 °C 39 °F /  3.9 °C 30.1in /  1018.3hPa NW 2.9mph /  4.7km/h 8mph /  12.9km/h 41% 0in /  0.0mm 789 W/m2
15:02 63.3 °F /  17.4 °C 38.7 °F /  3.7 °C 30.1in /  1018.3hPa NNW 6mph /  9.7km/h 6mph /  9.7km/h 40% 0in /  0.0mm 791 W/m2
15:07 63.3 °F /  17.4 °C 39.2 °F /  4 °C 30.1in /  1018.3hPa South 2mph /  3.2km/h 3mph /  4.8km/h 41% 0in /  0.0mm 784 W/m2
15:12 63.3 °F /  17.4 °C 38.7 °F /  3.7 °C 30.1in /  1018.3hPa West 4mph /  6.4km/h 9mph /  14.5km/h 40% 0in /  0.0mm 773 W/m2
15:17 63.7 °F /  17.6 °C 39.6 °F /  4.2 °C 30.1in /  1018.3hPa NNW 2.9mph /  4.7km/h 4mph /  6.4km/h 41% 0in /  0.0mm 770 W/m2
15:22 63.7 °F /  17.6 °C 38.3 °F /  3.5 °C 30.1in /  1018.3hPa South 2.9mph /  4.7km/h 9mph /  14.5km/h 39% 0in /  0.0mm 765 W/m2
15:27 63.7 °F /  17.6 °C 39.6 °F /  4.2 °C 30.1in /  1018.3hPa NNW 6mph /  9.7km/h 8mph /  12.9km/h 41% 0in /  0.0mm 756 W/m2
15:32 63.7 °F /  17.6 °C 40.1 °F /  4.5 °C 30.1in /  1018.3hPa West 2.9mph /  4.7km/h 6mph /  9.7km/h 42% 0in /  0.0mm 752 W/m2
15:37 63.7 °F /  17.6 °C 39.6 °F /  4.2 °C 30.1in /  1018.3hPa NW 2mph /  3.2km/h 3mph /  4.8km/h 41% 0in /  0.0mm 737 W/m2
15:42 64 °F /  17.8 °C 39.9 °F /  4.4 °C 30.1in /  1018.3hPa NW 2.9mph /  4.7km/h 5mph /  8km/h 41% 0in /  0.0mm 728 W/m2
15:47 63.9 °F /  17.7 °C 39.7 °F /  4.3 °C 30.1in /  1018.3hPa WNW 4mph /  6.4km/h 9mph /  14.5km/h 41% 0in /  0.0mm 722 W/m2
15:52 63.7 °F /  17.6 °C 40.1 °F /  4.5 °C 30.1in /  1018.3hPa NE 4mph /  6.4km/h 5mph /  8km/h 42% 0in /  0.0mm 714 W/m2
15:57 64.2 °F /  17.9 °C 40.6 °F /  4.8 °C 30.1in /  1018.3hPa ESE 6mph /  9.7km/h 8mph /  12.9km/h 42% 0in /  0.0mm 701 W/m2
16:02 64.2 °F /  17.9 °C 39.4 °F /  4.1 °C 30.1in /  1018.3hPa ENE 2mph /  3.2km/h 7mph /  11.3km/h 40% 0in /  0.0mm 694 W/m2
16:07 64.6 °F /  18.1 °C 39.7 °F /  4.3 °C 30.1in /  1018.3hPa West 6mph /  9.7km/h 11mph /  17.7km/h 40% 0in /  0.0mm 684 W/m2
16:12 64.6 °F /  18.1 °C 39.7 °F /  4.3 °C 30.1in /  1018.3hPa NNE 0.9mph /  1.4km/h 3mph /  4.8km/h 40% 0in /  0.0mm 668 W/m2
16:17 64.6 °F /  18.1 °C 39 °F /  3.9 °C 30.1in /  1018.3hPa Calm   9mph /  14.5km/h 39% 0in /  0.0mm 659 W/m2
16:22 64.8 °F /  18.2 °C 39.9 °F /  4.4 °C 30.1in /  1018.3hPa WNW 2.9mph /  4.7km/h 8mph /  12.9km/h 40% 0in /  0.0mm 656 W/m2
16:27 65.1 °F /  18.4 °C 40.8 °F /  4.9 °C 30.1in /  1018.3hPa NNE 2mph /  3.2km/h 9mph /  14.5km/h 41% 0in /  0.0mm 642 W/m2
16:32 65.1 °F /  18.4 °C 38.8 °F /  3.8 °C 30.1in /  1018.3hPa WNW 2.9mph /  4.7km/h 4mph /  6.4km/h 38% 0in /  0.0mm 633 W/m2
16:38 64.9 °F /  18.3 °C 39.4 °F /  4.1 °C 30.1in /  1018.3hPa SE 0.9mph /  1.4km/h 7mph /  11.3km/h 39% 0in /  0.0mm 622 W/m2
16:43 65.1 °F /  18.4 °C 40.3 °F /  4.6 °C 30.1in /  1018.3hPa ENE 4.9mph /  7.9km/h 9mph /  14.5km/h 40% 0in /  0.0mm 608 W/m2
16:48 64.9 °F /  18.3 °C 40.1 °F /  4.5 °C 30.1in /  1018.3hPa East 2mph /  3.2km/h 4mph /  6.4km/h 40% 0in /  0.0mm 596 W/m2
16:53 65.1 °F /  18.4 °C 39.6 °F /  4.2 °C 30.1in /  1018.3hPa ESE 2.9mph /  4.7km/h 9mph /  14.5km/h 39% 0in /  0.0mm 589 W/m2
16:58 64.9 °F /  18.3 °C 38.7 °F /  3.7 °C 30.1in /  1018.3hPa ENE 4mph /  6.4km/h 6mph /  9.7km/h 38% 0in /  0.0mm 578 W/m2
17:03 64.8 °F /  18.2 °C 37.9 °F /  3.3 °C 30.1in /  1018.3hPa ESE 4mph /  6.4km/h 7mph /  11.3km/h 37% 0in /  0.0mm 570 W/m2
17:08 64.8 °F /  18.2 °C 39.2 °F /  4 °C 30.1in /  1018.3hPa North 2.9mph /  4.7km/h 4mph /  6.4km/h 39% 0in /  0.0mm 555 W/m2
17:13 65.7 °F /  18.7 °C 38.7 °F /  3.7 °C 30.1in /  1018.3hPa North 0.9mph /  1.4km/h 5mph /  8km/h 37% 0in /  0.0mm 545 W/m2
17:18 65.8 °F /  18.8 °C 38.1 °F /  3.4 °C 30.1in /  1018.3hPa ENE 0.9mph /  1.4km/h 1mph /  1.6km/h 36% 0in /  0.0mm 536 W/m2
17:23 65.8 °F /  18.8 °C 38.1 °F /  3.4 °C 30.1in /  1018.3hPa ENE 2.9mph /  4.7km/h 5mph /  8km/h 36% 0in /  0.0mm 520 W/m2
17:28 65.8 °F /  18.8 °C 38.8 °F /  3.8 °C 30.1in /  1018.3hPa ENE 2mph /  3.2km/h 6mph /  9.7km/h 37% 0in /  0.0mm 512 W/m2
17:33 65.5 °F /  18.6 °C 37.8 °F /  3.2 °C 30.1in /  1018.3hPa ESE 4mph /  6.4km/h 9mph /  14.5km/h 36% 0in /  0.0mm 503 W/m2
17:38 65.5 °F /  18.6 °C 39.2 °F /  4 °C 30.1in /  1018.3hPa Calm   2mph /  3.2km/h 38% 0in /  0.0mm 483 W/m2
17:43 65.7 °F /  18.7 °C 37.2 °F /  2.9 °C 30.1in /  1018.3hPa NNE 2mph /  3.2km/h 4mph /  6.4km/h 35% 0in /  0.0mm 471 W/m2
17:48 65.7 °F /  18.7 °C 37.9 °F /  3.3 °C 30.1in /  1018.3hPa Calm   1mph /  1.6km/h 36% 0in /  0.0mm 457 W/m2
17:53 65.8 °F /  18.8 °C 39.6 °F /  4.2 °C 30.1in /  1018.6hPa East 0.9mph /  1.4km/h 2mph /  3.2km/h 38% 0in /  0.0mm 448 W/m2
17:58 66 °F /  18.9 °C 38.3 °F /  3.5 °C 30.1in /  1018.6hPa East 2.9mph /  4.7km/h 4mph /  6.4km/h 36% 0in /  0.0mm 436 W/m2
18:03 65.8 °F /  18.8 °C 38.1 °F /  3.4 °C 30.1in /  1018.6hPa North 0.9mph /  1.4km/h 7mph /  11.3km/h 36% 0in /  0.0mm 422 W/m2
18:08 65.8 °F /  18.8 °C 37.4 °F /  3 °C 30.1in /  1018.6hPa NNW 2mph /  3.2km/h 5mph /  8km/h 35% 0in /  0.0mm 408 W/m2
18:13 65.7 °F /  18.7 °C 39.4 °F /  4.1 °C 30.1in /  1018.6hPa SE 2.9mph /  4.7km/h 4mph /  6.4km/h 38% 0in /  0.0mm 397 W/m2
18:18 65.7 °F /  18.7 °C 38.7 °F /  3.7 °C 30.1in /  1018.6hPa SSE 0.9mph /  1.4km/h 1mph /  1.6km/h 37% 0in /  0.0mm 383 W/m2
18:23 65.8 °F /  18.8 °C 38.1 °F /  3.4 °C 30.1in /  1018.6hPa East 2mph /  3.2km/h 6mph /  9.7km/h 36% 0in /  0.0mm 366 W/m2
18:28 65.5 °F /  18.6 °C 37.8 °F /  3.2 °C 30.1in /  1018.6hPa East 2mph /  3.2km/h 7mph /  11.3km/h 36% 0in /  0.0mm 352 W/m2
18:33 65.5 °F /  18.6 °C 38.5 °F /  3.6 °C 30.1in /  1018.6hPa East 4mph /  6.4km/h 7mph /  11.3km/h 37% 0in /  0.0mm 339 W/m2
18:38 64.9 °F /  18.3 °C 38.7 °F /  3.7 °C 30.1in /  1018.6hPa SE 2mph /  3.2km/h 4mph /  6.4km/h 38% 0in /  0.0mm 323 W/m2
18:43 64.9 °F /  18.3 °C 38.7 °F /  3.7 °C 30.1in /  1018.6hPa North 2mph /  3.2km/h 3mph /  4.8km/h 38% 0in /  0.0mm 315 W/m2
18:48 65.5 °F /  18.6 °C 40.5 °F /  4.7 °C 30.1in /  1018.6hPa Calm   5mph /  8km/h 40% 0in /  0.0mm 299 W/m2
18:53 65.5 °F /  18.6 °C 38.5 °F /  3.6 °C 30.1in /  1018.6hPa East 4mph /  6.4km/h 4mph /  6.4km/h 37% 0in /  0.0mm 288 W/m2
18:58 65.7 °F /  18.7 °C 39.4 °F /  4.1 °C 30.1in /  1018.6hPa NNW 2.9mph /  4.7km/h 4mph /  6.4km/h 38% 0in /  0.0mm 276 W/m2
19:03 65.5 °F /  18.6 °C 37.8 °F /  3.2 °C 30.1in /  1019.0hPa SSE 4mph /  6.4km/h 7mph /  11.3km/h 36% 0in /  0.0mm 258 W/m2
19:08 65.1 °F /  18.4 °C 37.6 °F /  3.1 °C 30.1in /  1019.0hPa SE 0.9mph /  1.4km/h 4mph /  6.4km/h 36% 0in /  0.0mm 250 W/m2
19:13 65.3 °F /  18.5 °C 36.9 °F /  2.7 °C 30.1in /  1019.0hPa NW 0.9mph /  1.4km/h 6mph /  9.7km/h 35% 0in /  0.0mm 232 W/m2
19:18 65.5 °F /  18.6 °C 37.8 °F /  3.2 °C 30.1in /  1018.6hPa NNW 2mph /  3.2km/h 4mph /  6.4km/h 36% 0in /  0.0mm 220 W/m2
19:23 65.5 °F /  18.6 °C 37.8 °F /  3.2 °C 30.1in /  1018.6hPa ENE 4mph /  6.4km/h 4mph /  6.4km/h 36% 0in /  0.0mm 204 W/m2
19:28 65.3 °F /  18.5 °C 37.6 °F /  3.1 °C 30.1in /  1018.6hPa WNW 2mph /  3.2km/h 4mph /  6.4km/h 36% 0in /  0.0mm 190 W/m2
19:33 65.1 °F /  18.4 °C 38.1 °F /  3.4 °C 30.1in /  1018.6hPa ESE 0.9mph /  1.4km/h 3mph /  4.8km/h 37% 0in /  0.0mm 174 W/m2
19:39 64.9 °F /  18.3 °C 38.7 °F /  3.7 °C 30.1in /  1018.6hPa Calm   2mph /  3.2km/h 38% 0in /  0.0mm 160 W/m2
19:44 64.9 °F /  18.3 °C 39.4 °F /  4.1 °C 30.1in /  1018.6hPa East 0.9mph /  1.4km/h 2mph /  3.2km/h 39% 0in /  0.0mm 144 W/m2
19:49 64.9 °F /  18.3 °C 38.7 °F /  3.7 °C 30.1in /  1018.6hPa NW 4mph /  6.4km/h 4mph /  6.4km/h 38% 0in /  0.0mm 130 W/m2
19:54 64.9 °F /  18.3 °C 38.7 °F /  3.7 °C 30.1in /  1019.0hPa West 4mph /  6.4km/h 4mph /  6.4km/h 38% 0in /  0.0mm 116 W/m2
19:59 64.6 °F /  18.1 °C 38.5 °F /  3.6 °C 30.1in /  1019.0hPa NW 4mph /  6.4km/h 5mph /  8km/h 38% 0in /  0.0mm 102 W/m2
20:04 64 °F /  17.8 °C 38.7 °F /  3.7 °C 30.1in /  1019.0hPa WNW 2mph /  3.2km/h 5mph /  8km/h 39% 0in /  0.0mm 91 W/m2
20:09 63.9 °F /  17.7 °C 38.5 °F /  3.6 °C 30.1in /  1019.0hPa East 2mph /  3.2km/h 2mph /  3.2km/h 39% 0in /  0.0mm 79 W/m2
20:14 63.7 °F /  17.6 °C 38.3 °F /  3.5 °C 30.1in /  1019.0hPa North 2mph /  3.2km/h 3mph /  4.8km/h 39% 0in /  0.0mm 67 W/m2
20:19 63.9 °F /  17.7 °C 38.5 °F /  3.6 °C 30.1in /  1019.0hPa West 2.9mph /  4.7km/h 8mph /  12.9km/h 39% 0in /  0.0mm 58 W/m2
20:24 63.5 °F /  17.5 °C 38.7 °F /  3.7 °C 30.1in /  1019.0hPa North 2mph /  3.2km/h 3mph /  4.8km/h 40% 0in /  0.0mm 49 W/m2
20:29 63 °F /  17.2 °C 38.3 °F /  3.5 °C 30.1in /  1019.0hPa WNW 2.9mph /  4.7km/h 8mph /  12.9km/h 40% 0in /  0.0mm 40 W/m2
20:34 62.4 °F /  16.9 °C 38.5 °F /  3.6 °C 30.1in /  1019.0hPa NW 0.9mph /  1.4km/h 3mph /  4.8km/h 41% 0in /  0.0mm 32 W/m2
20:39 61.9 °F /  16.6 °C 37.9 °F /  3.3 °C 30.1in /  1019.0hPa NNW 4.9mph /  7.9km/h 5mph /  8km/h 41% 0in /  0.0mm 25 W/m2
20:44 61.3 °F /  16.3 °C 38.1 °F /  3.4 °C 30.1in /  1019.3hPa North 4mph /  6.4km/h 6mph /  9.7km/h 42% 0in /  0.0mm 21 W/m2
20:50 61 °F /  16.1 °C 38.3 °F /  3.5 °C 30.1in /  1019.3hPa West 0.9mph /  1.4km/h 3mph /  4.8km/h 43% 0in /  0.0mm 18 W/m2
20:55 60.8 °F /  16 °C 38.1 °F /  3.4 °C 30.1in /  1019.3hPa WNW 2mph /  3.2km/h 5mph /  8km/h 43% 0in /  0.0mm 14 W/m2
21:00 60.4 °F /  15.8 °C 38.5 °F /  3.6 °C 30.1in /  1019.3hPa NNW 2mph /  3.2km/h 2mph /  3.2km/h 44% 0in /  0.0mm 11 W/m2
21:05 60.1 °F /  15.6 °C 38.1 °F /  3.4 °C 30.1in /  1019.3hPa NW 2mph /  3.2km/h 3mph /  4.8km/h 44% 0in /  0.0mm 9 W/m2
21:10 59.7 °F /  15.4 °C 38.8 °F /  3.8 °C 30.1in /  1019.3hPa WSW 0.9mph /  1.4km/h 2mph /  3.2km/h 46% 0in /  0.0mm 7 W/m2
21:15 59.4 °F /  15.2 °C 38.7 °F /  3.7 °C 30.1in /  1019.6hPa NE 2mph /  3.2km/h 5mph /  8km/h 46% 0in /  0.0mm 5 W/m2
21:20 59 °F /  15 °C 38.3 °F /  3.5 °C 30.1in /  1019.6hPa Calm   2mph /  3.2km/h 46% 0in /  0.0mm 0 W/m2
21:25 58.6 °F /  14.8 °C 39 °F /  3.9 °C 30.1in /  1019.6hPa Calm   2mph /  3.2km/h 48% 0in /  0.0mm 0 W/m2
21:30 58.5 °F /  14.7 °C 39.4 °F /  4.1 °C 30.1in /  1019.6hPa SW 2mph /  3.2km/h 2mph /  3.2km/h 49% 0in /  0.0mm 0 W/m2
21:35 58.1 °F /  14.5 °C 39 °F /  3.9 °C 30.1in /  1019.6hPa Calm   2mph /  3.2km/h 49% 0in /  0.0mm 0 W/m2
21:40 57.7 °F /  14.3 °C 38.7 °F /  3.7 °C 30.1in /  1020.0hPa Calm   1mph /  1.6km/h 49% 0in /  0.0mm 0 W/m2
21:45 57.6 °F /  14.2 °C 38.5 °F /  3.6 °C 30.1in /  1020.0hPa Calm   2mph /  3.2km/h 49% 0in /  0.0mm 0 W/m2
21:50 57 °F /  13.9 °C 39 °F /  3.9 °C 30.1in /  1020.0hPa WNW 0.9mph /  1.4km/h 3mph /  4.8km/h 51% 0in /  0.0mm 0 W/m2
21:55 56.8 °F /  13.8 °C 38.5 °F /  3.6 °C 30.1in /  1020.3hPa Calm   2mph /  3.2km/h 50% 0in /  0.0mm 0 W/m2
22:00 56.8 °F /  13.8 °C 38.8 °F /  3.8 °C 30.1in /  1020.3hPa Calm   1mph /  1.6km/h 51% 0in /  0.0mm 0 W/m2
22:05 56.5 °F /  13.6 °C 39.6 °F /  4.2 °C 30.1in /  1020.3hPa West 0.9mph /  1.4km/h 1mph /  1.6km/h 53% 0in /  0.0mm 0 W/m2
22:10 55.9 °F /  13.3 °C 38.5 °F /  3.6 °C 30.1in /  1020.3hPa WNW 0.9mph /  1.4km/h 4mph /  6.4km/h 52% 0in /  0.0mm 0 W/m2
22:15 55.8 °F /  13.2 °C 38.5 °F /  3.6 °C 30.1in /  1020.3hPa NNW 2mph /  3.2km/h 2mph /  3.2km/h 52% 0in /  0.0mm 0 W/m2
22:20 55.6 °F /  13.1 °C 38.3 °F /  3.5 °C 30.1in /  1020.7hPa West 2mph /  3.2km/h 4mph /  6.4km/h 52% 0in /  0.0mm 0 W/m2
22:25 55.2 °F /  12.9 °C 37.9 °F /  3.3 °C 30.1in /  1020.7hPa NW 2mph /  3.2km/h 2mph /  3.2km/h 52% 0in /  0.0mm 0 W/m2
22:30 55 °F /  12.8 °C 37.8 °F /  3.2 °C 30.1in /  1020.7hPa NW 0.9mph /  1.4km/h 4mph /  6.4km/h 52% 0in /  0.0mm 0 W/m2
22:35 54.9 °F /  12.7 °C 37.6 °F /  3.1 °C 30.1in /  1020.7hPa WNW 0.9mph /  1.4km/h 3mph /  4.8km/h 52% 0in /  0.0mm 0 W/m2
22:40 54.7 °F /  12.6 °C 37.9 °F /  3.3 °C 30.1in /  1020.7hPa West 0.9mph /  1.4km/h 2mph /  3.2km/h 53% 0in /  0.0mm 0 W/m2
22:45 54.5 °F /  12.5 °C 38.1 °F /  3.4 °C 30.1in /  1020.7hPa West 0.9mph /  1.4km/h 3mph /  4.8km/h 54% 0in /  0.0mm 0 W/m2
22:50 54 °F /  12.2 °C 37.8 °F /  3.2 °C 30.1in /  1020.7hPa ESE 0.9mph /  1.4km/h 2mph /  3.2km/h 54% 0in /  0.0mm 0 W/m2
22:55 53.6 °F /  12 °C 38.3 °F /  3.5 °C 30.1in /  1020.7hPa Calm   1mph /  1.6km/h 56% 0in /  0.0mm 0 W/m2
23:00 53.2 °F /  11.8 °C 37.9 °F /  3.3 °C 30.2in /  1021.0hPa SSW 2mph /  3.2km/h 2mph /  3.2km/h 56% 0in /  0.0mm 0 W/m2
23:05 52.9 °F /  11.6 °C 37.6 °F /  3.1 °C 30.1in /  1020.7hPa SSW 2mph /  3.2km/h 2mph /  3.2km/h 56% 0in /  0.0mm 0 W/m2
23:10 52.3 °F /  11.3 °C 37.6 °F /  3.1 °C 30.2in /  1021.0hPa SSW 0.9mph /  1.4km/h 2mph /  3.2km/h 57% 0in /  0.0mm 0 W/m2
23:15 52.2 °F /  11.2 °C 37.4 °F /  3 °C 30.2in /  1021.0hPa WSW 2mph /  3.2km/h 2mph /  3.2km/h 57% 0in /  0.0mm 0 W/m2
23:20 51.8 °F /  11 °C 37.6 °F /  3.1 °C 30.2in /  1021.0hPa South 0.9mph /  1.4km/h 2mph /  3.2km/h 58% 0in /  0.0mm 0 W/m2
23:25 51.4 °F /  10.8 °C 37.6 °F /  3.1 °C 30.2in /  1021.0hPa South 0.9mph /  1.4km/h 1mph /  1.6km/h 59% 0in /  0.0mm 0 W/m2
23:30 51.3 °F /  10.7 °C 36.1 °F /  2.3 °C 30.2in /  1021.0hPa West 0.9mph /  1.4km/h 7mph /  11.3km/h 56% 0in /  0.0mm 0 W/m2
23:35 51.6 °F /  10.9 °C 35.6 °F /  2 °C 30.2in /  1021.0hPa WNW 4.9mph /  7.9km/h 5mph /  8km/h 54% 0in /  0.0mm 0 W/m2
23:40 52.2 °F /  11.2 °C 35.6 °F /  2 °C 30.2in /  1021.0hPa WSW 0.9mph /  1.4km/h 3mph /  4.8km/h 53% 0in /  0.0mm 0 W/m2
23:45 52.3 °F /  11.3 °C 35.8 °F /  2.1 °C 30.2in /  1021.0hPa SW 0.9mph /  1.4km/h 2mph /  3.2km/h 53% 0in /  0.0mm 0 W/m2
23:50 52.2 °F /  11.2 °C 36.5 °F /  2.5 °C 30.2in /  1021.0hPa Calm   4mph /  6.4km/h 55% 0in /  0.0mm 0 W/m2
23:55 51.6 °F /  10.9 °C 36.5 °F /  2.5 °C 30.2in /  1021.0hPa SSW 0.9mph /  1.4km/h 2mph /  3.2km/h 56% 0in /  0.0mm 0 W/m2
Juneau County Weather
Compliments of Weather Underground - 2 mb